< Typhoon 195523 1955 Season Typhoon 195525 >
Typhoon 195524 (NO-NAME)
General InformationTrack Information on Google Maps || Disaster Info.ResourceGoogle EarthGE AnimationAtom FeedGeoJSON
Detalied Best Track (Time Zone = UTC)
Year Month Day Hour Lat. Long. Pressure (hPa) Wind (kt) Class Image Chart
1955 10 1 18 15.1 146.3 1006 0 2 -- Chart
1955 10 2 00 14.5 146.1 1006 0 2 -- Chart
1955 10 2 06 13.9 146.2 1004 0 2 -- Chart
1955 10 2 12 13.4 146.3 1004 0 2 -- Chart
1955 10 2 18 13.1 146.7 1004 0 2 -- Chart
1955 10 3 00 13.1 146.9 1004 0 2 -- Chart
1955 10 3 06 13.6 146.9 1004 0 9 -- Chart
1955 10 3 12 13.9 146.7 1004 0 9 -- Chart
1955 10 3 18 14.2 146.2 1005 0 9 -- Chart
1955 10 4 00 14.3 145.7 1006 0 9 -- Chart
1955 10 4 06 15.0 145.9 1005 0 9 -- Chart
1955 10 4 12 15.8 146.5 1005 0 9 -- Chart
1955 10 4 18 16.5 147.0 1005 0 2 -- Chart
1955 10 5 00 17.5 146.5 1005 0 2 -- Chart
1955 10 5 06 18.0 145.5 1005 0 2 -- Chart
1955 10 5 12 18.7 145.0 1005 0 2 -- Chart
1955 10 5 18 19.4 144.7 1005 0 2 -- Chart
1955 10 6 00 20.3 145.0 1005 0 2 -- Chart
1955 10 6 06 21.2 145.3 1005 0 2 -- Chart
1955 10 6 12 21.9 145.3 1005 0 2 -- Chart
1955 10 6 18 22.6 145.2 1005 0 2 -- Chart
1955 10 7 00 23.2 145.0 1005 0 2 -- Chart
Japan Meteorological Agency Best Track Data | Correction Date : 1989-06-01
< Typhoon 195523 1955 Season Typhoon 195525 >

Help